sensor_id;sensor_type;location;lat;lon;timestamp;temperature;humidity
40151;DHT22;25866;52.420;10.640;2023-05-07T00:00:58;9.90;99.90
40151;DHT22;25866;52.420;10.640;2023-05-07T00:03:25;9.80;99.90
40151;DHT22;25866;52.420;10.640;2023-05-07T00:05:55;9.80;99.90
40151;DHT22;25866;52.420;10.640;2023-05-07T00:08:21;9.80;99.90
40151;DHT22;25866;52.420;10.640;2023-05-07T00:10:47;9.80;99.90
40151;DHT22;25866;52.420;10.640;2023-05-07T00:13:12;9.90;99.90
40151;DHT22;25866;52.420;10.640;2023-05-07T00:15:38;9.90;99.90
40151;DHT22;25866;52.420;10.640;2023-05-07T00:18:06;9.80;99.90
40151;DHT22;25866;52.420;10.640;2023-05-07T00:20:32;9.80;99.90
40151;DHT22;25866;52.420;10.640;2023-05-07T00:22:57;9.80;99.90
40151;DHT22;25866;52.420;10.640;2023-05-07T00:25:23;9.70;99.90
40151;DHT22;25866;52.420;10.640;2023-05-07T00:27:49;9.70;99.90
40151;DHT22;25866;52.420;10.640;2023-05-07T00:30:14;9.70;99.90
40151;DHT22;25866;52.420;10.640;2023-05-07T00:32:40;9.70;99.90
40151;DHT22;25866;52.420;10.640;2023-05-07T00:35:06;9.70;99.90
40151;DHT22;25866;52.420;10.640;2023-05-07T00:37:34;9.70;99.90
40151;DHT22;25866;52.420;10.640;2023-05-07T00:40:00;9.70;99.90
40151;DHT22;25866;52.420;10.640;2023-05-07T00:42:28;9.70;99.90
40151;DHT22;25866;52.420;10.640;2023-05-07T00:44:54;9.70;99.90
40151;DHT22;25866;52.420;10.640;2023-05-07T00:47:20;9.80;99.90
40151;DHT22;25866;52.420;10.640;2023-05-07T00:49:46;9.70;99.90
40151;DHT22;25866;52.420;10.640;2023-05-07T00:52:14;9.70;99.90
40151;DHT22;25866;52.420;10.640;2023-05-07T00:54:41;9.70;99.90
40151;DHT22;25866;52.420;10.640;2023-05-07T00:57:10;9.70;99.90
40151;DHT22;25866;52.420;10.640;2023-05-07T00:59:39;9.70;99.90
40151;DHT22;25866;52.420;10.640;2023-05-07T01:02:06;9.70;99.90
40151;DHT22;25866;52.420;10.640;2023-05-07T01:04:32;9.70;99.90
40151;DHT22;25866;52.420;10.640;2023-05-07T01:07:02;9.70;99.90
40151;DHT22;25866;52.420;10.640;2023-05-07T01:09:29;9.70;99.90
40151;DHT22;25866;52.420;10.640;2023-05-07T01:11:55;9.70;99.90
40151;DHT22;25866;52.420;10.640;2023-05-07T01:14:22;9.70;99.90
40151;DHT22;25866;52.420;10.640;2023-05-07T01:16:53;9.70;99.90
40151;DHT22;25866;52.420;10.640;2023-05-07T01:19:19;9.70;99.90
40151;DHT22;25866;52.420;10.640;2023-05-07T01:21:47;9.70;99.90
40151;DHT22;25866;52.420;10.640;2023-05-07T01:24:14;9.70;99.90
40151;DHT22;25866;52.420;10.640;2023-05-07T01:26:42;9.60;99.90
40151;DHT22;25866;52.420;10.640;2023-05-07T01:29:07;9.70;99.90
40151;DHT22;25866;52.420;10.640;2023-05-07T01:31:34;9.70;99.90
40151;DHT22;25866;52.420;10.640;2023-05-07T01:34:01;9.60;99.90
40151;DHT22;25866;52.420;10.640;2023-05-07T01:36:30;9.60;99.90
40151;DHT22;25866;52.420;10.640;2023-05-07T01:38:57;9.60;99.90
40151;DHT22;25866;52.420;10.640;2023-05-07T01:41:24;9.60;99.90
40151;DHT22;25866;52.420;10.640;2023-05-07T01:43:51;9.60;99.90
40151;DHT22;25866;52.420;10.640;2023-05-07T01:46:18;9.50;99.90
40151;DHT22;25866;52.420;10.640;2023-05-07T01:48:45;9.60;99.90
40151;DHT22;25866;52.420;10.640;2023-05-07T01:51:12;9.60;99.90
40151;DHT22;25866;52.420;10.640;2023-05-07T01:53:39;9.50;99.90
40151;DHT22;25866;52.420;10.640;2023-05-07T01:56:06;9.50;99.90
40151;DHT22;25866;52.420;10.640;2023-05-07T01:58:32;9.50;99.90
40151;DHT22;25866;52.420;10.640;2023-05-07T02:00:57;9.40;99.90
40151;DHT22;25866;52.420;10.640;2023-05-07T02:03:23;9.50;99.90
40151;DHT22;25866;52.420;10.640;2023-05-07T02:05:48;9.50;99.90
40151;DHT22;25866;52.420;10.640;2023-05-07T02:08:18;9.50;99.90
40151;DHT22;25866;52.420;10.640;2023-05-07T02:10:44;9.50;99.90
40151;DHT22;25866;52.420;10.640;2023-05-07T02:13:09;9.50;99.90
40151;DHT22;25866;52.420;10.640;2023-05-07T02:15:35;9.50;99.90
40151;DHT22;25866;52.420;10.640;2023-05-07T02:18:08;9.50;99.90
40151;DHT22;25866;52.420;10.640;2023-05-07T02:20:34;9.50;99.90
40151;DHT22;25866;52.420;10.640;2023-05-07T02:23:00;9.50;99.90
40151;DHT22;25866;52.420;10.640;2023-05-07T02:25:26;9.40;99.90
40151;DHT22;25866;52.420;10.640;2023-05-07T02:27:52;9.50;99.90
40151;DHT22;25866;52.420;10.640;2023-05-07T02:30:18;9.50;99.90
40151;DHT22;25866;52.420;10.640;2023-05-07T02:32:46;9.40;99.90
40151;DHT22;25866;52.420;10.640;2023-05-07T02:35:12;9.40;99.90
40151;DHT22;25866;52.420;10.640;2023-05-07T02:37:39;9.40;99.90
40151;DHT22;25866;52.420;10.640;2023-05-07T02:40:05;9.40;99.90
40151;DHT22;25866;52.420;10.640;2023-05-07T02:42:31;9.40;99.90
40151;DHT22;25866;52.420;10.640;2023-05-07T02:44:57;9.40;99.90
40151;DHT22;25866;52.420;10.640;2023-05-07T02:47:24;9.30;99.90
40151;DHT22;25866;52.420;10.640;2023-05-07T02:49:52;9.30;99.90
40151;DHT22;25866;52.420;10.640;2023-05-07T02:52:18;9.30;99.90
40151;DHT22;25866;52.420;10.640;2023-05-07T02:54:44;9.30;99.90
40151;DHT22;25866;52.420;10.640;2023-05-07T02:57:10;9.30;99.90
40151;DHT22;25866;52.420;10.640;2023-05-07T02:59:36;9.20;99.90
40151;DHT22;25866;52.420;10.640;2023-05-07T03:02:02;9.20;99.90
40151;DHT22;25866;52.420;10.640;2023-05-07T03:04:27;9.20;99.90
40151;DHT22;25866;52.420;10.640;2023-05-07T03:06:53;9.20;99.90
40151;DHT22;25866;52.420;10.640;2023-05-07T03:09:18;9.20;99.90
40151;DHT22;25866;52.420;10.640;2023-05-07T03:11:44;9.20;99.90
40151;DHT22;25866;52.420;10.640;2023-05-07T03:14:10;9.20;99.90
40151;DHT22;25866;52.420;10.640;2023-05-07T03:16:35;9.20;99.90
40151;DHT22;25866;52.420;10.640;2023-05-07T03:19:01;9.20;99.90
40151;DHT22;25866;52.420;10.640;2023-05-07T03:21:27;9.20;99.90
40151;DHT22;25866;52.420;10.640;2023-05-07T03:23:52;9.30;99.90
40151;DHT22;25866;52.420;10.640;2023-05-07T03:26:18;9.30;99.90
40151;DHT22;25866;52.420;10.640;2023-05-07T03:28:44;9.30;99.90
40151;DHT22;25866;52.420;10.640;2023-05-07T03:31:09;9.20;99.90
40151;DHT22;25866;52.420;10.640;2023-05-07T03:33:37;9.20;99.90
40151;DHT22;25866;52.420;10.640;2023-05-07T03:36:04;9.20;99.90
40151;DHT22;25866;52.420;10.640;2023-05-07T03:38:30;9.20;99.90
40151;DHT22;25866;52.420;10.640;2023-05-07T03:40:55;9.20;99.90
40151;DHT22;25866;52.420;10.640;2023-05-07T03:43:21;9.30;99.90
40151;DHT22;25866;52.420;10.640;2023-05-07T03:45:47;9.20;99.90
40151;DHT22;25866;52.420;10.640;2023-05-07T03:48:12;9.20;99.90
40151;DHT22;25866;52.420;10.640;2023-05-07T03:50:38;9.10;99.90
40151;DHT22;25866;52.420;10.640;2023-05-07T03:53:04;9.20;99.90
40151;DHT22;25866;52.420;10.640;2023-05-07T03:55:29;9.10;99.90
40151;DHT22;25866;52.420;10.640;2023-05-07T03:57:59;9.10;99.90
40151;DHT22;25866;52.420;10.640;2023-05-07T04:00:25;9.10;99.90
40151;DHT22;25866;52.420;10.640;2023-05-07T04:02:51;9.20;99.90
40151;DHT22;25866;52.420;10.640;2023-05-07T04:05:16;9.10;99.90
40151;DHT22;25866;52.420;10.640;2023-05-07T04:07:42;9.10;99.90
40151;DHT22;25866;52.420;10.640;2023-05-07T04:10:08;9.10;99.90
40151;DHT22;25866;52.420;10.640;2023-05-07T04:12:34;9.20;99.90
40151;DHT22;25866;52.420;10.640;2023-05-07T04:14:59;9.20;99.90
40151;DHT22;25866;52.420;10.640;2023-05-07T04:17:25;9.20;99.90
40151;DHT22;25866;52.420;10.640;2023-05-07T04:19:51;9.20;99.90
40151;DHT22;25866;52.420;10.640;2023-05-07T04:22:16;9.20;99.90
40151;DHT22;25866;52.420;10.640;2023-05-07T04:24:42;9.30;99.90
40151;DHT22;25866;52.420;10.640;2023-05-07T04:27:07;9.30;99.90
40151;DHT22;25866;52.420;10.640;2023-05-07T04:29:35;9.30;99.90
40151;DHT22;25866;52.420;10.640;2023-05-07T04:32:01;9.30;99.90
40151;DHT22;25866;52.420;10.640;2023-05-07T04:34:26;9.30;99.90
40151;DHT22;25866;52.420;10.640;2023-05-07T04:36:52;9.30;99.90
40151;DHT22;25866;52.420;10.640;2023-05-07T04:39:25;9.30;99.90
40151;DHT22;25866;52.420;10.640;2023-05-07T04:41:51;9.30;99.90
40151;DHT22;25866;52.420;10.640;2023-05-07T04:44:16;9.30;99.90
40151;DHT22;25866;52.420;10.640;2023-05-07T04:46:42;9.20;99.90
40151;DHT22;25866;52.420;10.640;2023-05-07T04:49:17;9.20;99.90
40151;DHT22;25866;52.420;10.640;2023-05-07T04:51:42;9.20;99.90
40151;DHT22;25866;52.420;10.640;2023-05-07T04:54:08;9.30;99.90
40151;DHT22;25866;52.420;10.640;2023-05-07T04:56:34;9.30;99.90
40151;DHT22;25866;52.420;10.640;2023-05-07T04:59:01;9.30;99.90
40151;DHT22;25866;52.420;10.640;2023-05-07T05:01:27;9.30;99.90
40151;DHT22;25866;52.420;10.640;2023-05-07T05:03:52;9.30;99.90
40151;DHT22;25866;52.420;10.640;2023-05-07T05:06:18;9.30;99.90
40151;DHT22;25866;52.420;10.640;2023-05-07T05:08:45;9.30;99.90
40151;DHT22;25866;52.420;10.640;2023-05-07T05:11:10;9.30;99.90
40151;DHT22;25866;52.420;10.640;2023-05-07T05:13:36;9.40;99.90
40151;DHT22;25866;52.420;10.640;2023-05-07T05:16:02;9.40;99.90
40151;DHT22;25866;52.420;10.640;2023-05-07T05:18:28;9.40;99.90
40151;DHT22;25866;52.420;10.640;2023-05-07T05:20:53;9.40;99.90
40151;DHT22;25866;52.420;10.640;2023-05-07T05:23:19;9.40;99.90
40151;DHT22;25866;52.420;10.640;2023-05-07T05:25:45;9.40;99.90
40151;DHT22;25866;52.420;10.640;2023-05-07T05:28:11;9.50;99.90
40151;DHT22;25866;52.420;10.640;2023-05-07T05:30:37;9.40;99.90
40151;DHT22;25866;52.420;10.640;2023-05-07T05:33:02;9.40;99.90
40151;DHT22;25866;52.420;10.640;2023-05-07T05:35:29;9.40;99.90
40151;DHT22;25866;52.420;10.640;2023-05-07T05:37:55;9.40;99.90
40151;DHT22;25866;52.420;10.640;2023-05-07T05:40:21;9.40;99.90
40151;DHT22;25866;52.420;10.640;2023-05-07T05:42:46;9.40;99.90
40151;DHT22;25866;52.420;10.640;2023-05-07T05:45:12;9.40;99.90
40151;DHT22;25866;52.420;10.640;2023-05-07T05:47:38;9.40;99.90
40151;DHT22;25866;52.420;10.640;2023-05-07T05:50:07;9.40;99.90
40151;DHT22;25866;52.420;10.640;2023-05-07T05:52:33;9.40;99.90
40151;DHT22;25866;52.420;10.640;2023-05-07T05:54:58;9.40;99.90
40151;DHT22;25866;52.420;10.640;2023-05-07T05:57:24;9.30;99.90
40151;DHT22;25866;52.420;10.640;2023-05-07T05:59:50;9.40;99.90
40151;DHT22;25866;52.420;10.640;2023-05-07T06:02:16;9.40;99.90
40151;DHT22;25866;52.420;10.640;2023-05-07T06:04:42;9.40;99.90
40151;DHT22;25866;52.420;10.640;2023-05-07T06:07:10;9.40;99.90
40151;DHT22;25866;52.420;10.640;2023-05-07T06:09:38;9.40;99.90
40151;DHT22;25866;52.420;10.640;2023-05-07T06:12:03;9.40;99.90
40151;DHT22;25866;52.420;10.640;2023-05-07T06:14:29;9.40;99.90
40151;DHT22;25866;52.420;10.640;2023-05-07T06:16:55;9.40;99.90
40151;DHT22;25866;52.420;10.640;2023-05-07T06:19:29;9.40;99.90
40151;DHT22;25866;52.420;10.640;2023-05-07T06:21:54;9.40;99.90
40151;DHT22;25866;52.420;10.640;2023-05-07T06:24:22;9.40;99.90
40151;DHT22;25866;52.420;10.640;2023-05-07T06:26:47;9.40;99.90
40151;DHT22;25866;52.420;10.640;2023-05-07T06:29:15;9.40;99.90
40151;DHT22;25866;52.420;10.640;2023-05-07T06:31:42;9.50;99.90
40151;DHT22;25866;52.420;10.640;2023-05-07T06:34:07;9.50;99.90
40151;DHT22;25866;52.420;10.640;2023-05-07T06:36:33;9.60;99.90
40151;DHT22;25866;52.420;10.640;2023-05-07T06:39:00;9.60;99.90
40151;DHT22;25866;52.420;10.640;2023-05-07T06:41:25;9.60;99.90
40151;DHT22;25866;52.420;10.640;2023-05-07T06:43:51;9.50;99.90
40151;DHT22;25866;52.420;10.640;2023-05-07T06:46:17;9.50;99.90
40151;DHT22;25866;52.420;10.640;2023-05-07T06:48:42;9.50;99.90
40151;DHT22;25866;52.420;10.640;2023-05-07T06:51:08;9.60;99.90
40151;DHT22;25866;52.420;10.640;2023-05-07T06:53:35;9.60;99.90
40151;DHT22;25866;52.420;10.640;2023-05-07T06:56:00;9.60;99.90
40151;DHT22;25866;52.420;10.640;2023-05-07T06:58:26;9.50;99.90
40151;DHT22;25866;52.420;10.640;2023-05-07T07:00:53;9.60;99.90
40151;DHT22;25866;52.420;10.640;2023-05-07T07:03:18;9.60;99.90
40151;DHT22;25866;52.420;10.640;2023-05-07T07:05:44;9.60;99.90
40151;DHT22;25866;52.420;10.640;2023-05-07T07:08:10;9.60;99.90
40151;DHT22;25866;52.420;10.640;2023-05-07T07:10:45;9.60;99.90
40151;DHT22;25866;52.420;10.640;2023-05-07T07:13:11;9.60;99.90
40151;DHT22;25866;52.420;10.640;2023-05-07T07:15:37;9.70;99.90
40151;DHT22;25866;52.420;10.640;2023-05-07T07:18:02;9.70;99.90
40151;DHT22;25866;52.420;10.640;2023-05-07T07:20:29;9.80;99.90
40151;DHT22;25866;52.420;10.640;2023-05-07T07:22:54;9.80;99.90
40151;DHT22;25866;52.420;10.640;2023-05-07T07:25:20;9.80;99.90
40151;DHT22;25866;52.420;10.640;2023-05-07T07:27:46;9.80;99.90
40151;DHT22;25866;52.420;10.640;2023-05-07T07:30:15;9.80;99.90
40151;DHT22;25866;52.420;10.640;2023-05-07T07:32:41;9.80;99.90
40151;DHT22;25866;52.420;10.640;2023-05-07T07:35:08;9.90;99.90
40151;DHT22;25866;52.420;10.640;2023-05-07T07:37:34;9.90;99.90
40151;DHT22;25866;52.420;10.640;2023-05-07T07:40:01;10.00;99.90
40151;DHT22;25866;52.420;10.640;2023-05-07T07:42:26;10.00;99.90
40151;DHT22;25866;52.420;10.640;2023-05-07T07:44:52;10.00;99.90
40151;DHT22;25866;52.420;10.640;2023-05-07T07:47:18;10.10;99.90
40151;DHT22;25866;52.420;10.640;2023-05-07T07:49:46;10.10;99.90
40151;DHT22;25866;52.420;10.640;2023-05-07T07:52:12;10.10;99.90
40151;DHT22;25866;52.420;10.640;2023-05-07T07:54:37;10.10;99.90
40151;DHT22;25866;52.420;10.640;2023-05-07T07:57:03;10.20;99.90
40151;DHT22;25866;52.420;10.640;2023-05-07T07:59:31;10.10;99.90
40151;DHT22;25866;52.420;10.640;2023-05-07T08:01:56;10.20;99.90
40151;DHT22;25866;52.420;10.640;2023-05-07T08:04:22;10.20;99.90
40151;DHT22;25866;52.420;10.640;2023-05-07T08:06:48;10.20;99.90
40151;DHT22;25866;52.420;10.640;2023-05-07T08:09:14;10.20;99.90
40151;DHT22;25866;52.420;10.640;2023-05-07T08:11:41;10.30;99.90
40151;DHT22;25866;52.420;10.640;2023-05-07T08:14:09;10.30;99.90
40151;DHT22;25866;52.420;10.640;2023-05-07T08:16:34;10.30;99.90
40151;DHT22;25866;52.420;10.640;2023-05-07T08:19:00;10.30;99.90
40151;DHT22;25866;52.420;10.640;2023-05-07T08:21:28;10.30;99.90
40151;DHT22;25866;52.420;10.640;2023-05-07T08:23:54;10.30;99.90
40151;DHT22;25866;52.420;10.640;2023-05-07T08:26:19;10.30;99.90
40151;DHT22;25866;52.420;10.640;2023-05-07T08:28:45;10.40;99.90
40151;DHT22;25866;52.420;10.640;2023-05-07T08:31:11;10.40;99.90
40151;DHT22;25866;52.420;10.640;2023-05-07T08:33:37;10.40;99.90
40151;DHT22;25866;52.420;10.640;2023-05-07T08:36:04;10.40;99.90
40151;DHT22;25866;52.420;10.640;2023-05-07T08:38:30;10.40;99.90
40151;DHT22;25866;52.420;10.640;2023-05-07T08:40:56;10.40;99.90
40151;DHT22;25866;52.420;10.640;2023-05-07T08:43:27;10.40;99.90
40151;DHT22;25866;52.420;10.640;2023-05-07T08:45:54;10.50;99.90
40151;DHT22;25866;52.420;10.640;2023-05-07T08:48:25;10.50;99.90
40151;DHT22;25866;52.420;10.640;2023-05-07T08:50:51;10.50;99.90
40151;DHT22;25866;52.420;10.640;2023-05-07T08:53:17;10.50;99.90
40151;DHT22;25866;52.420;10.640;2023-05-07T08:55:43;10.60;99.90
40151;DHT22;25866;52.420;10.640;2023-05-07T08:58:08;10.70;99.90
40151;DHT22;25866;52.420;10.640;2023-05-07T09:00:36;10.70;99.90
40151;DHT22;25866;52.420;10.640;2023-05-07T09:03:01;10.70;99.90
40151;DHT22;25866;52.420;10.640;2023-05-07T09:05:27;10.70;99.90
40151;DHT22;25866;52.420;10.640;2023-05-07T09:07:53;10.90;99.90
40151;DHT22;25866;52.420;10.640;2023-05-07T09:10:21;10.90;99.90
40151;DHT22;25866;52.420;10.640;2023-05-07T09:12:47;11.10;99.90
40151;DHT22;25866;52.420;10.640;2023-05-07T09:15:13;11.10;99.90
40151;DHT22;25866;52.420;10.640;2023-05-07T09:17:39;11.20;99.90
40151;DHT22;25866;52.420;10.640;2023-05-07T09:20:08;11.30;99.90
40151;DHT22;25866;52.420;10.640;2023-05-07T09:22:36;11.30;99.90
40151;DHT22;25866;52.420;10.640;2023-05-07T09:25:02;11.40;99.90
40151;DHT22;25866;52.420;10.640;2023-05-07T09:27:28;11.50;99.90
40151;DHT22;25866;52.420;10.640;2023-05-07T09:29:54;11.60;99.90
40151;DHT22;25866;52.420;10.640;2023-05-07T09:32:20;11.60;99.90
40151;DHT22;25866;52.420;10.640;2023-05-07T09:34:46;11.60;99.90
40151;DHT22;25866;52.420;10.640;2023-05-07T09:37:13;11.50;99.90
40151;DHT22;25866;52.420;10.640;2023-05-07T09:39:48;11.50;99.90
40151;DHT22;25866;52.420;10.640;2023-05-07T09:42:14;11.40;99.90
40151;DHT22;25866;52.420;10.640;2023-05-07T09:44:43;11.30;99.90
40151;DHT22;25866;52.420;10.640;2023-05-07T09:47:10;11.30;99.90
40151;DHT22;25866;52.420;10.640;2023-05-07T09:49:39;11.30;99.90
40151;DHT22;25866;52.420;10.640;2023-05-07T09:52:09;11.30;99.90
40151;DHT22;25866;52.420;10.640;2023-05-07T09:54:36;11.40;99.90
40151;DHT22;25866;52.420;10.640;2023-05-07T09:57:04;11.40;99.90
40151;DHT22;25866;52.420;10.640;2023-05-07T09:59:32;11.40;99.90
40151;DHT22;25866;52.420;10.640;2023-05-07T10:01:59;11.50;99.90
40151;DHT22;25866;52.420;10.640;2023-05-07T10:04:26;11.40;99.90
40151;DHT22;25866;52.420;10.640;2023-05-07T10:06:52;11.50;99.90
40151;DHT22;25866;52.420;10.640;2023-05-07T10:09:19;11.50;99.90
40151;DHT22;25866;52.420;10.640;2023-05-07T10:11:46;11.60;99.90
40151;DHT22;25866;52.420;10.640;2023-05-07T10:14:14;11.60;99.90
40151;DHT22;25866;52.420;10.640;2023-05-07T10:16:40;11.60;99.90
40151;DHT22;25866;52.420;10.640;2023-05-07T10:19:07;11.70;99.90
40151;DHT22;25866;52.420;10.640;2023-05-07T10:21:42;11.80;99.90
40151;DHT22;25866;52.420;10.640;2023-05-07T10:24:16;11.80;99.90
40151;DHT22;25866;52.420;10.640;2023-05-07T10:26:48;11.90;99.90
40151;DHT22;25866;52.420;10.640;2023-05-07T10:29:29;11.90;99.90
40151;DHT22;25866;52.420;10.640;2023-05-07T10:34:50;11.90;99.90
40151;DHT22;25866;52.420;10.640;2023-05-07T10:37:18;12.00;99.90
40151;DHT22;25866;52.420;10.640;2023-05-07T10:39:45;12.10;99.90
40151;DHT22;25866;52.420;10.640;2023-05-07T10:42:12;12.20;99.90
40151;DHT22;25866;52.420;10.640;2023-05-07T10:44:38;12.40;99.90
40151;DHT22;25866;52.420;10.640;2023-05-07T10:47:15;12.50;99.90
40151;DHT22;25866;52.420;10.640;2023-05-07T10:52:20;12.60;99.90
40151;DHT22;25866;52.420;10.640;2023-05-07T10:54:46;12.50;99.90
40151;DHT22;25866;52.420;10.640;2023-05-07T10:57:32;12.50;99.90
40151;DHT22;25866;52.420;10.640;2023-05-07T10:59:58;12.50;99.90
40151;DHT22;25866;52.420;10.640;2023-05-07T11:05:30;12.50;99.90
40151;DHT22;25866;52.420;10.640;2023-05-07T11:10:54;12.50;99.90
40151;DHT22;25866;52.420;10.640;2023-05-07T11:16:43;12.20;99.90
40151;DHT22;25866;52.420;10.640;2023-05-07T11:19:10;12.10;99.90
40151;DHT22;25866;52.420;10.640;2023-05-07T11:21:41;11.90;99.90
40151;DHT22;25866;52.420;10.640;2023-05-07T11:24:08;11.80;99.90
40151;DHT22;25866;52.420;10.640;2023-05-07T11:26:48;11.90;99.90
40151;DHT22;25866;52.420;10.640;2023-05-07T11:29:17;11.90;99.90
40151;DHT22;25866;52.420;10.640;2023-05-07T11:31:44;11.90;99.90
40151;DHT22;25866;52.420;10.640;2023-05-07T11:34:14;12.00;99.90
40151;DHT22;25866;52.420;10.640;2023-05-07T11:36:44;12.00;99.90
40151;DHT22;25866;52.420;10.640;2023-05-07T11:39:30;12.00;99.90
40151;DHT22;25866;52.420;10.640;2023-05-07T11:41:57;12.10;99.90
40151;DHT22;25866;52.420;10.640;2023-05-07T11:44:22;12.20;99.90
40151;DHT22;25866;52.420;10.640;2023-05-07T11:46:50;12.20;99.90
40151;DHT22;25866;52.420;10.640;2023-05-07T11:49:17;12.20;99.90
40151;DHT22;25866;52.420;10.640;2023-05-07T11:51:43;12.20;99.90
40151;DHT22;25866;52.420;10.640;2023-05-07T11:54:09;12.30;99.90
40151;DHT22;25866;52.420;10.640;2023-05-07T11:56:37;12.40;99.90
40151;DHT22;25866;52.420;10.640;2023-05-07T11:59:05;12.60;99.90
40151;DHT22;25866;52.420;10.640;2023-05-07T12:01:31;12.60;99.90
40151;DHT22;25866;52.420;10.640;2023-05-07T12:03:56;12.60;99.90
40151;DHT22;25866;52.420;10.640;2023-05-07T12:06:22;12.70;99.90
40151;DHT22;25866;52.420;10.640;2023-05-07T12:08:51;12.80;99.90
40151;DHT22;25866;52.420;10.640;2023-05-07T12:11:23;12.90;99.90
40151;DHT22;25866;52.420;10.640;2023-05-07T12:13:49;13.00;99.90
40151;DHT22;25866;52.420;10.640;2023-05-07T12:16:14;13.10;99.90
40151;DHT22;25866;52.420;10.640;2023-05-07T12:18:40;13.00;99.90
40151;DHT22;25866;52.420;10.640;2023-05-07T12:21:07;13.00;99.90
40151;DHT22;25866;52.420;10.640;2023-05-07T12:23:37;13.00;99.90
40151;DHT22;25866;52.420;10.640;2023-05-07T12:26:04;13.10;99.90
40151;DHT22;25866;52.420;10.640;2023-05-07T12:28:35;13.10;99.90
40151;DHT22;25866;52.420;10.640;2023-05-07T12:31:02;13.10;99.90
40151;DHT22;25866;52.420;10.640;2023-05-07T12:33:28;13.20;99.90
40151;DHT22;25866;52.420;10.640;2023-05-07T12:35:55;13.20;99.90
40151;DHT22;25866;52.420;10.640;2023-05-07T12:38:22;13.20;99.90
40151;DHT22;25866;52.420;10.640;2023-05-07T12:40:53;13.30;99.90
40151;DHT22;25866;52.420;10.640;2023-05-07T12:43:28;13.20;99.90
40151;DHT22;25866;52.420;10.640;2023-05-07T12:45:56;13.30;99.90
40151;DHT22;25866;52.420;10.640;2023-05-07T12:48:23;13.30;99.90
40151;DHT22;25866;52.420;10.640;2023-05-07T12:50:53;13.30;99.90
40151;DHT22;25866;52.420;10.640;2023-05-07T12:53:24;13.40;99.90
40151;DHT22;25866;52.420;10.640;2023-05-07T12:55:55;13.40;99.90
40151;DHT22;25866;52.420;10.640;2023-05-07T12:58:27;13.30;99.90
40151;DHT22;25866;52.420;10.640;2023-05-07T13:00:54;13.40;99.90
40151;DHT22;25866;52.420;10.640;2023-05-07T13:03:25;13.40;99.90
40151;DHT22;25866;52.420;10.640;2023-05-07T13:05:52;13.40;99.90
40151;DHT22;25866;52.420;10.640;2023-05-07T13:08:44;13.50;99.90
40151;DHT22;25866;52.420;10.640;2023-05-07T13:11:10;13.50;99.90
40151;DHT22;25866;52.420;10.640;2023-05-07T13:13:38;13.60;99.90
40151;DHT22;25866;52.420;10.640;2023-05-07T13:16:05;13.70;99.90
40151;DHT22;25866;52.420;10.640;2023-05-07T13:18:32;13.80;99.90
40151;DHT22;25866;52.420;10.640;2023-05-07T13:21:01;13.90;99.90
40151;DHT22;25866;52.420;10.640;2023-05-07T13:23:27;13.90;99.90
40151;DHT22;25866;52.420;10.640;2023-05-07T13:25:53;14.10;99.90
40151;DHT22;25866;52.420;10.640;2023-05-07T13:28:23;14.40;99.90
40151;DHT22;25866;52.420;10.640;2023-05-07T13:30:50;14.40;99.90
40151;DHT22;25866;52.420;10.640;2023-05-07T13:33:17;14.20;99.90
40151;DHT22;25866;52.420;10.640;2023-05-07T13:35:44;14.20;99.90
40151;DHT22;25866;52.420;10.640;2023-05-07T13:38:09;14.10;99.90
40151;DHT22;25866;52.420;10.640;2023-05-07T13:40:36;14.10;99.90
40151;DHT22;25866;52.420;10.640;2023-05-07T13:43:02;14.20;99.90
40151;DHT22;25866;52.420;10.640;2023-05-07T13:45:30;14.20;99.90
40151;DHT22;25866;52.420;10.640;2023-05-07T13:47:57;14.40;99.90
40151;DHT22;25866;52.420;10.640;2023-05-07T13:50:24;14.80;99.90
40151;DHT22;25866;52.420;10.640;2023-05-07T13:52:49;14.90;99.90
40151;DHT22;25866;52.420;10.640;2023-05-07T13:55:18;14.80;99.90
40151;DHT22;25866;52.420;10.640;2023-05-07T13:57:44;14.70;99.90
40151;DHT22;25866;52.420;10.640;2023-05-07T14:00:16;14.70;99.90
40151;DHT22;25866;52.420;10.640;2023-05-07T14:02:41;14.60;99.90
40151;DHT22;25866;52.420;10.640;2023-05-07T14:05:08;14.60;99.90
40151;DHT22;25866;52.420;10.640;2023-05-07T14:07:35;14.50;99.90
40151;DHT22;25866;52.420;10.640;2023-05-07T14:10:03;14.40;99.90
40151;DHT22;25866;52.420;10.640;2023-05-07T14:12:29;14.30;99.90
40151;DHT22;25866;52.420;10.640;2023-05-07T14:14:54;14.30;99.90
40151;DHT22;25866;52.420;10.640;2023-05-07T14:17:20;14.20;99.90
40151;DHT22;25866;52.420;10.640;2023-05-07T14:19:48;14.10;99.90
40151;DHT22;25866;52.420;10.640;2023-05-07T14:22:14;14.10;99.90
40151;DHT22;25866;52.420;10.640;2023-05-07T14:24:41;14.20;99.90
40151;DHT22;25866;52.420;10.640;2023-05-07T14:27:06;14.30;99.90
40151;DHT22;25866;52.420;10.640;2023-05-07T14:29:32;14.60;99.90
40151;DHT22;25866;52.420;10.640;2023-05-07T14:31:59;14.90;99.90
40151;DHT22;25866;52.420;10.640;2023-05-07T14:34:25;14.90;99.90
40151;DHT22;25866;52.420;10.640;2023-05-07T14:36:50;14.80;99.90
40151;DHT22;25866;52.420;10.640;2023-05-07T14:39:17;14.60;99.90
40151;DHT22;25866;52.420;10.640;2023-05-07T14:41:42;14.50;99.90
40151;DHT22;25866;52.420;10.640;2023-05-07T14:44:08;14.30;99.90
40151;DHT22;25866;52.420;10.640;2023-05-07T14:46:34;14.40;99.90
40151;DHT22;25866;52.420;10.640;2023-05-07T14:49:00;14.50;99.90
40151;DHT22;25866;52.420;10.640;2023-05-07T14:51:25;14.50;99.90
40151;DHT22;25866;52.420;10.640;2023-05-07T14:53:53;14.70;99.90
40151;DHT22;25866;52.420;10.640;2023-05-07T14:56:19;14.80;99.90
40151;DHT22;25866;52.420;10.640;2023-05-07T14:58:47;14.90;99.90
40151;DHT22;25866;52.420;10.640;2023-05-07T15:01:14;15.20;99.90
40151;DHT22;25866;52.420;10.640;2023-05-07T15:03:40;15.30;99.90
40151;DHT22;25866;52.420;10.640;2023-05-07T15:06:11;15.40;99.90
40151;DHT22;25866;52.420;10.640;2023-05-07T15:08:37;15.40;99.90
40151;DHT22;25866;52.420;10.640;2023-05-07T15:11:03;15.50;99.90
40151;DHT22;25866;52.420;10.640;2023-05-07T15:13:28;15.50;99.90
40151;DHT22;25866;52.420;10.640;2023-05-07T15:15:54;15.50;99.90
40151;DHT22;25866;52.420;10.640;2023-05-07T15:18:20;15.30;99.90
40151;DHT22;25866;52.420;10.640;2023-05-07T15:20:45;15.00;99.90
40151;DHT22;25866;52.420;10.640;2023-05-07T15:23:11;15.00;99.90
40151;DHT22;25866;52.420;10.640;2023-05-07T15:25:39;15.00;99.90
40151;DHT22;25866;52.420;10.640;2023-05-07T15:28:05;15.00;99.90
40151;DHT22;25866;52.420;10.640;2023-05-07T15:30:30;15.00;99.90
40151;DHT22;25866;52.420;10.640;2023-05-07T15:32:56;14.90;99.90
40151;DHT22;25866;52.420;10.640;2023-05-07T15:35:22;14.80;99.90